sensor_id;sensor_type;location;lat;lon;timestamp;P1;durP1;ratioP1;P2;durP2;ratioP2
52043;SDS011;38053;53.100;6.078;2023-02-04T00:01:30;60.10;;;10.52;;
52043;SDS011;38053;53.100;6.078;2023-02-04T00:03:56;55.65;;;9.65;;
52043;SDS011;38053;53.100;6.078;2023-02-04T00:06:22;61.95;;;12.98;;
52043;SDS011;38053;53.100;6.078;2023-02-04T00:08:47;49.53;;;8.18;;
52043;SDS011;38053;53.100;6.078;2023-02-04T00:11:13;58.40;;;10.25;;
52043;SDS011;38053;53.100;6.078;2023-02-04T00:13:39;32.35;;;9.18;;
52043;SDS011;38053;53.100;6.078;2023-02-04T00:16:04;47.30;;;8.38;;
52043;SDS011;38053;53.100;6.078;2023-02-04T00:18:30;57.67;;;9.57;;
52043;SDS011;38053;53.100;6.078;2023-02-04T00:20:56;55.58;;;9.88;;
52043;SDS011;38053;53.100;6.078;2023-02-04T00:23:22;55.33;;;12.57;;
52043;SDS011;38053;53.100;6.078;2023-02-04T00:25:47;54.15;;;9.52;;
52043;SDS011;38053;53.100;6.078;2023-02-04T00:28:13;59.22;;;10.27;;
52043;SDS011;38053;53.100;6.078;2023-02-04T00:30:40;55.17;;;8.27;;
52043;SDS011;38053;53.100;6.078;2023-02-04T00:33:06;61.28;;;9.63;;
52043;SDS011;38053;53.100;6.078;2023-02-04T00:35:31;52.65;;;8.68;;
52043;SDS011;38053;53.100;6.078;2023-02-04T00:37:57;48.65;;;10.63;;
52043;SDS011;38053;53.100;6.078;2023-02-04T00:40:23;74.85;;;13.45;;
52043;SDS011;38053;53.100;6.078;2023-02-04T00:42:48;46.67;;;8.52;;
52043;SDS011;38053;53.100;6.078;2023-02-04T00:45:14;49.42;;;9.88;;
52043;SDS011;38053;53.100;6.078;2023-02-04T00:47:40;51.95;;;9.10;;
52043;SDS011;38053;53.100;6.078;2023-02-04T00:50:05;60.88;;;9.65;;
52043;SDS011;38053;53.100;6.078;2023-02-04T00:52:34;47.72;;;10.43;;
52043;SDS011;38053;53.100;6.078;2023-02-04T00:54:59;51.00;;;9.07;;
52043;SDS011;38053;53.100;6.078;2023-02-04T00:57:25;60.72;;;11.18;;
52043;SDS011;38053;53.100;6.078;2023-02-04T00:59:50;51.35;;;9.45;;
52043;SDS011;38053;53.100;6.078;2023-02-04T01:02:16;60.45;;;11.02;;
52043;SDS011;38053;53.100;6.078;2023-02-04T01:04:42;47.85;;;9.70;;
52043;SDS011;38053;53.100;6.078;2023-02-04T01:07:07;54.97;;;12.02;;
52043;SDS011;38053;53.100;6.078;2023-02-04T01:09:33;68.70;;;12.00;;
52043;SDS011;38053;53.100;6.078;2023-02-04T01:11:59;61.13;;;10.00;;
52043;SDS011;38053;53.100;6.078;2023-02-04T01:14:25;60.47;;;9.65;;
52043;SDS011;38053;53.100;6.078;2023-02-04T01:16:50;52.63;;;10.05;;
52043;SDS011;38053;53.100;6.078;2023-02-04T01:19:17;51.92;;;9.48;;
52043;SDS011;38053;53.100;6.078;2023-02-04T01:21:43;56.10;;;9.13;;
52043;SDS011;38053;53.100;6.078;2023-02-04T01:24:08;55.78;;;9.15;;
52043;SDS011;38053;53.100;6.078;2023-02-04T01:26:34;49.25;;;8.98;;
52043;SDS011;38053;53.100;6.078;2023-02-04T01:29:00;59.05;;;8.65;;
52043;SDS011;38053;53.100;6.078;2023-02-04T01:31:25;57.72;;;9.55;;
52043;SDS011;38053;53.100;6.078;2023-02-04T01:33:52;59.58;;;10.10;;
52043;SDS011;38053;53.100;6.078;2023-02-04T01:36:17;48.15;;;8.45;;
52043;SDS011;38053;53.100;6.078;2023-02-04T01:38:46;49.88;;;10.82;;
52043;SDS011;38053;53.100;6.078;2023-02-04T01:41:12;41.40;;;7.88;;
52043;SDS011;38053;53.100;6.078;2023-02-04T01:43:38;55.08;;;10.68;;
52043;SDS011;38053;53.100;6.078;2023-02-04T01:46:04;59.03;;;9.70;;
52043;SDS011;38053;53.100;6.078;2023-02-04T01:48:30;54.88;;;8.10;;
52043;SDS011;38053;53.100;6.078;2023-02-04T01:51:01;49.85;;;10.70;;
52043;SDS011;38053;53.100;6.078;2023-02-04T01:53:30;49.47;;;8.75;;
52043;SDS011;38053;53.100;6.078;2023-02-04T01:55:56;48.70;;;9.80;;
52043;SDS011;38053;53.100;6.078;2023-02-04T01:58:22;54.60;;;10.82;;
52043;SDS011;38053;53.100;6.078;2023-02-04T02:00:49;50.05;;;9.15;;
52043;SDS011;38053;53.100;6.078;2023-02-04T02:03:14;68.53;;;11.10;;
52043;SDS011;38053;53.100;6.078;2023-02-04T02:05:58;49.92;;;8.32;;
52043;SDS011;38053;53.100;6.078;2023-02-04T02:08:24;51.58;;;7.63;;
52043;SDS011;38053;53.100;6.078;2023-02-04T02:10:50;59.55;;;9.15;;
52043;SDS011;38053;53.100;6.078;2023-02-04T02:13:17;51.65;;;8.68;;
52043;SDS011;38053;53.100;6.078;2023-02-04T02:15:43;47.40;;;8.38;;
52043;SDS011;38053;53.100;6.078;2023-02-04T02:18:10;62.65;;;11.00;;
52043;SDS011;38053;53.100;6.078;2023-02-04T02:20:36;55.70;;;8.63;;
52043;SDS011;38053;53.100;6.078;2023-02-04T02:25:31;52.83;;;9.07;;
52043;SDS011;38053;53.100;6.078;2023-02-04T02:27:58;47.03;;;9.63;;
52043;SDS011;38053;53.100;6.078;2023-02-04T02:30:25;66.97;;;10.18;;
52043;SDS011;38053;53.100;6.078;2023-02-04T02:32:52;60.17;;;10.25;;
52043;SDS011;38053;53.100;6.078;2023-02-04T02:35:18;47.80;;;9.15;;
52043;SDS011;38053;53.100;6.078;2023-02-04T02:37:44;57.53;;;9.70;;
52043;SDS011;38053;53.100;6.078;2023-02-04T02:40:10;50.05;;;10.55;;
52043;SDS011;38053;53.100;6.078;2023-02-04T02:42:36;41.65;;;9.80;;
52043;SDS011;38053;53.100;6.078;2023-02-04T02:45:04;62.33;;;9.00;;
52043;SDS011;38053;53.100;6.078;2023-02-04T02:47:35;59.22;;;14.40;;
52043;SDS011;38053;53.100;6.078;2023-02-04T02:50:01;55.30;;;12.13;;
52043;SDS011;38053;53.100;6.078;2023-02-04T02:52:26;44.67;;;7.82;;
52043;SDS011;38053;53.100;6.078;2023-02-04T02:54:52;48.30;;;10.73;;
52043;SDS011;38053;53.100;6.078;2023-02-04T02:57:19;47.13;;;8.93;;
52043;SDS011;38053;53.100;6.078;2023-02-04T02:59:46;59.60;;;11.52;;
52043;SDS011;38053;53.100;6.078;2023-02-04T03:02:13;46.22;;;10.23;;
52043;SDS011;38053;53.100;6.078;2023-02-04T03:04:47;44.47;;;8.82;;
52043;SDS011;38053;53.100;6.078;2023-02-04T03:07:16;59.70;;;9.82;;
52043;SDS011;38053;53.100;6.078;2023-02-04T03:09:43;49.78;;;9.35;;
52043;SDS011;38053;53.100;6.078;2023-02-04T03:12:09;68.80;;;15.00;;
52043;SDS011;38053;53.100;6.078;2023-02-04T03:14:35;41.88;;;9.10;;
52043;SDS011;38053;53.100;6.078;2023-02-04T03:17:03;42.50;;;8.25;;
52043;SDS011;38053;53.100;6.078;2023-02-04T03:19:31;46.75;;;8.05;;
52043;SDS011;38053;53.100;6.078;2023-02-04T03:21:58;56.55;;;8.57;;
52043;SDS011;38053;53.100;6.078;2023-02-04T03:24:25;55.72;;;8.85;;
52043;SDS011;38053;53.100;6.078;2023-02-04T03:26:51;54.30;;;10.50;;
52043;SDS011;38053;53.100;6.078;2023-02-04T03:29:17;58.67;;;10.23;;
52043;SDS011;38053;53.100;6.078;2023-02-04T03:31:42;56.05;;;10.45;;
52043;SDS011;38053;53.100;6.078;2023-02-04T03:34:08;70.25;;;11.73;;
52043;SDS011;38053;53.100;6.078;2023-02-04T03:36:34;55.08;;;12.10;;
52043;SDS011;38053;53.100;6.078;2023-02-04T03:39:00;57.42;;;10.13;;
52043;SDS011;38053;53.100;6.078;2023-02-04T03:41:27;47.58;;;7.78;;
52043;SDS011;38053;53.100;6.078;2023-02-04T03:43:53;58.05;;;8.98;;
52043;SDS011;38053;53.100;6.078;2023-02-04T03:46:20;50.90;;;9.18;;
52043;SDS011;38053;53.100;6.078;2023-02-04T03:48:47;58.58;;;8.60;;
52043;SDS011;38053;53.100;6.078;2023-02-04T03:51:13;44.63;;;7.05;;
52043;SDS011;38053;53.100;6.078;2023-02-04T03:53:39;38.40;;;8.38;;
52043;SDS011;38053;53.100;6.078;2023-02-04T03:56:05;46.55;;;9.60;;
52043;SDS011;38053;53.100;6.078;2023-02-04T03:58:31;57.63;;;12.18;;
52043;SDS011;38053;53.100;6.078;2023-02-04T04:00:56;67.95;;;10.25;;
52043;SDS011;38053;53.100;6.078;2023-02-04T04:03:22;68.85;;;10.15;;
52043;SDS011;38053;53.100;6.078;2023-02-04T04:05:48;46.17;;;7.43;;
52043;SDS011;38053;53.100;6.078;2023-02-04T04:08:14;67.18;;;10.18;;
52043;SDS011;38053;53.100;6.078;2023-02-04T04:10:39;56.08;;;11.30;;
52043;SDS011;38053;53.100;6.078;2023-02-04T04:13:05;66.93;;;10.05;;
52043;SDS011;38053;53.100;6.078;2023-02-04T04:15:31;54.05;;;8.70;;
52043;SDS011;38053;53.100;6.078;2023-02-04T04:17:57;51.47;;;8.18;;
52043;SDS011;38053;53.100;6.078;2023-02-04T04:20:22;49.60;;;10.00;;
52043;SDS011;38053;53.100;6.078;2023-02-04T04:22:52;50.33;;;10.80;;
52043;SDS011;38053;53.100;6.078;2023-02-04T04:25:18;51.70;;;10.88;;
52043;SDS011;38053;53.100;6.078;2023-02-04T04:27:43;46.40;;;9.90;;
52043;SDS011;38053;53.100;6.078;2023-02-04T04:30:10;61.25;;;9.73;;
52043;SDS011;38053;53.100;6.078;2023-02-04T04:32:36;37.72;;;8.30;;
52043;SDS011;38053;53.100;6.078;2023-02-04T04:35:01;53.75;;;10.30;;
52043;SDS011;38053;53.100;6.078;2023-02-04T04:37:27;63.78;;;10.88;;
52043;SDS011;38053;53.100;6.078;2023-02-04T04:39:53;66.45;;;9.93;;
52043;SDS011;38053;53.100;6.078;2023-02-04T04:42:19;54.35;;;9.30;;
52043;SDS011;38053;53.100;6.078;2023-02-04T04:44:45;43.75;;;8.25;;
52043;SDS011;38053;53.100;6.078;2023-02-04T04:47:10;53.80;;;8.05;;
52043;SDS011;38053;53.100;6.078;2023-02-04T04:49:36;55.10;;;9.60;;
52043;SDS011;38053;53.100;6.078;2023-02-04T04:52:02;55.35;;;10.45;;
52043;SDS011;38053;53.100;6.078;2023-02-04T04:54:27;62.38;;;11.98;;
52043;SDS011;38053;53.100;6.078;2023-02-04T04:56:53;72.05;;;10.55;;
52043;SDS011;38053;53.100;6.078;2023-02-04T04:59:19;52.97;;;8.85;;
52043;SDS011;38053;53.100;6.078;2023-02-04T05:01:47;72.03;;;13.60;;
52043;SDS011;38053;53.100;6.078;2023-02-04T05:04:12;54.90;;;9.20;;
52043;SDS011;38053;53.100;6.078;2023-02-04T05:06:38;63.45;;;11.32;;
52043;SDS011;38053;53.100;6.078;2023-02-04T05:09:04;59.60;;;10.43;;
52043;SDS011;38053;53.100;6.078;2023-02-04T05:11:29;69.85;;;10.88;;
52043;SDS011;38053;53.100;6.078;2023-02-04T05:13:55;58.22;;;10.95;;
52043;SDS011;38053;53.100;6.078;2023-02-04T05:16:21;66.47;;;10.85;;
52043;SDS011;38053;53.100;6.078;2023-02-04T05:18:47;52.65;;;10.57;;
52043;SDS011;38053;53.100;6.078;2023-02-04T05:21:12;56.40;;;10.50;;
52043;SDS011;38053;53.100;6.078;2023-02-04T05:23:38;41.60;;;8.60;;
52043;SDS011;38053;53.100;6.078;2023-02-04T05:26:04;49.85;;;8.50;;
52043;SDS011;38053;53.100;6.078;2023-02-04T05:28:29;48.60;;;10.30;;
52043;SDS011;38053;53.100;6.078;2023-02-04T05:30:55;58.10;;;10.85;;
52043;SDS011;38053;53.100;6.078;2023-02-04T05:33:21;63.00;;;11.07;;
52043;SDS011;38053;53.100;6.078;2023-02-04T05:35:47;59.13;;;12.27;;
52043;SDS011;38053;53.100;6.078;2023-02-04T05:38:12;53.78;;;8.80;;
52043;SDS011;38053;53.100;6.078;2023-02-04T05:40:38;59.65;;;10.77;;
52043;SDS011;38053;53.100;6.078;2023-02-04T05:43:04;74.60;;;10.88;;
52043;SDS011;38053;53.100;6.078;2023-02-04T05:45:30;73.45;;;11.73;;
52043;SDS011;38053;53.100;6.078;2023-02-04T05:47:55;58.42;;;11.13;;
52043;SDS011;38053;53.100;6.078;2023-02-04T05:50:21;65.50;;;10.30;;
52043;SDS011;38053;53.100;6.078;2023-02-04T05:52:47;62.67;;;12.95;;
52043;SDS011;38053;53.100;6.078;2023-02-04T05:55:12;57.28;;;8.63;;
52043;SDS011;38053;53.100;6.078;2023-02-04T05:57:38;58.85;;;9.43;;
52043;SDS011;38053;53.100;6.078;2023-02-04T06:00:04;46.65;;;8.65;;
52043;SDS011;38053;53.100;6.078;2023-02-04T06:02:31;65.30;;;10.82;;
52043;SDS011;38053;53.100;6.078;2023-02-04T06:04:57;60.08;;;9.73;;
52043;SDS011;38053;53.100;6.078;2023-02-04T06:07:22;68.65;;;11.70;;
52043;SDS011;38053;53.100;6.078;2023-02-04T06:09:48;66.95;;;11.55;;
52043;SDS011;38053;53.100;6.078;2023-02-04T06:12:13;59.80;;;12.55;;
52043;SDS011;38053;53.100;6.078;2023-02-04T06:14:39;44.95;;;10.77;;
52043;SDS011;38053;53.100;6.078;2023-02-04T06:17:05;49.22;;;8.48;;
52043;SDS011;38053;53.100;6.078;2023-02-04T06:19:31;59.58;;;10.18;;
52043;SDS011;38053;53.100;6.078;2023-02-04T06:21:56;65.45;;;10.45;;
52043;SDS011;38053;53.100;6.078;2023-02-04T06:24:22;57.78;;;11.05;;
52043;SDS011;38053;53.100;6.078;2023-02-04T06:26:48;52.28;;;7.95;;
52043;SDS011;38053;53.100;6.078;2023-02-04T06:29:13;51.10;;;8.63;;
52043;SDS011;38053;53.100;6.078;2023-02-04T06:31:39;66.75;;;11.85;;
52043;SDS011;38053;53.100;6.078;2023-02-04T06:34:05;57.40;;;10.70;;
52043;SDS011;38053;53.100;6.078;2023-02-04T06:36:30;61.88;;;9.38;;
52043;SDS011;38053;53.100;6.078;2023-02-04T06:38:56;59.92;;;11.23;;
52043;SDS011;38053;53.100;6.078;2023-02-04T06:41:22;50.28;;;10.70;;
52043;SDS011;38053;53.100;6.078;2023-02-04T06:43:48;50.28;;;8.07;;
52043;SDS011;38053;53.100;6.078;2023-02-04T06:46:14;49.13;;;8.32;;
52043;SDS011;38053;53.100;6.078;2023-02-04T06:48:40;62.22;;;8.52;;
52043;SDS011;38053;53.100;6.078;2023-02-04T06:51:06;60.80;;;8.10;;
52043;SDS011;38053;53.100;6.078;2023-02-04T06:53:31;44.38;;;9.77;;
52043;SDS011;38053;53.100;6.078;2023-02-04T06:55:57;55.30;;;8.30;;
52043;SDS011;38053;53.100;6.078;2023-02-04T06:58:23;59.35;;;8.98;;
52043;SDS011;38053;53.100;6.078;2023-02-04T07:00:49;76.03;;;8.82;;
52043;SDS011;38053;53.100;6.078;2023-02-04T07:03:14;62.83;;;8.15;;
52043;SDS011;38053;53.100;6.078;2023-02-04T07:05:40;62.40;;;9.90;;
52043;SDS011;38053;53.100;6.078;2023-02-04T07:08:06;46.38;;;8.60;;
52043;SDS011;38053;53.100;6.078;2023-02-04T07:10:31;53.05;;;9.02;;
52043;SDS011;38053;53.100;6.078;2023-02-04T07:12:57;52.60;;;9.15;;
52043;SDS011;38053;53.100;6.078;2023-02-04T07:15:23;48.97;;;8.18;;
52043;SDS011;38053;53.100;6.078;2023-02-04T07:17:49;56.05;;;7.93;;
52043;SDS011;38053;53.100;6.078;2023-02-04T07:20:14;43.88;;;8.30;;
52043;SDS011;38053;53.100;6.078;2023-02-04T07:22:40;39.17;;;6.70;;
52043;SDS011;38053;53.100;6.078;2023-02-04T07:25:06;40.33;;;7.38;;
52043;SDS011;38053;53.100;6.078;2023-02-04T07:27:34;63.08;;;11.73;;
52043;SDS011;38053;53.100;6.078;2023-02-04T07:29:59;51.90;;;8.38;;
52043;SDS011;38053;53.100;6.078;2023-02-04T07:32:25;50.47;;;8.73;;
52043;SDS011;38053;53.100;6.078;2023-02-04T07:34:56;53.00;;;9.82;;
52043;SDS011;38053;53.100;6.078;2023-02-04T07:37:23;48.90;;;10.15;;
52043;SDS011;38053;53.100;6.078;2023-02-04T07:39:48;68.40;;;9.23;;
52043;SDS011;38053;53.100;6.078;2023-02-04T07:42:14;64.13;;;10.30;;
52043;SDS011;38053;53.100;6.078;2023-02-04T07:44:40;43.72;;;9.98;;
52043;SDS011;38053;53.100;6.078;2023-02-04T07:47:05;48.67;;;9.90;;
52043;SDS011;38053;53.100;6.078;2023-02-04T07:49:31;57.70;;;12.90;;
52043;SDS011;38053;53.100;6.078;2023-02-04T07:51:57;59.72;;;9.70;;
52043;SDS011;38053;53.100;6.078;2023-02-04T07:54:23;47.80;;;9.80;;
52043;SDS011;38053;53.100;6.078;2023-02-04T07:56:48;46.30;;;9.20;;
52043;SDS011;38053;53.100;6.078;2023-02-04T07:59:14;61.22;;;11.77;;
52043;SDS011;38053;53.100;6.078;2023-02-04T08:01:40;64.75;;;9.85;;
52043;SDS011;38053;53.100;6.078;2023-02-04T08:04:05;46.15;;;10.52;;
52043;SDS011;38053;53.100;6.078;2023-02-04T08:06:31;57.60;;;8.85;;
52043;SDS011;38053;53.100;6.078;2023-02-04T08:08:57;60.03;;;9.60;;
52043;SDS011;38053;53.100;6.078;2023-02-04T08:11:22;38.65;;;7.68;;
52043;SDS011;38053;53.100;6.078;2023-02-04T08:13:48;40.30;;;6.95;;
52043;SDS011;38053;53.100;6.078;2023-02-04T08:16:14;34.90;;;7.28;;
52043;SDS011;38053;53.100;6.078;2023-02-04T08:18:39;34.33;;;8.68;;
52043;SDS011;38053;53.100;6.078;2023-02-04T08:21:05;31.52;;;6.72;;
52043;SDS011;38053;53.100;6.078;2023-02-04T08:23:31;33.63;;;8.70;;
52043;SDS011;38053;53.100;6.078;2023-02-04T08:25:59;33.58;;;6.57;;
52043;SDS011;38053;53.100;6.078;2023-02-04T08:28:25;42.53;;;6.72;;
52043;SDS011;38053;53.100;6.078;2023-02-04T08:30:51;32.97;;;6.63;;
52043;SDS011;38053;53.100;6.078;2023-02-04T08:33:17;36.63;;;6.93;;
52043;SDS011;38053;53.100;6.078;2023-02-04T08:35:43;36.47;;;7.28;;
52043;SDS011;38053;53.100;6.078;2023-02-04T08:38:09;30.48;;;6.03;;
52043;SDS011;38053;53.100;6.078;2023-02-04T08:40:35;32.38;;;7.28;;
52043;SDS011;38053;53.100;6.078;2023-02-04T08:43:00;39.83;;;7.07;;
52043;SDS011;38053;53.100;6.078;2023-02-04T08:45:26;33.13;;;6.60;;
52043;SDS011;38053;53.100;6.078;2023-02-04T08:47:52;31.13;;;8.57;;
52043;SDS011;38053;53.100;6.078;2023-02-04T08:50:17;31.23;;;6.97;;
52043;SDS011;38053;53.100;6.078;2023-02-04T08:52:43;37.05;;;8.82;;
52043;SDS011;38053;53.100;6.078;2023-02-04T08:55:09;28.55;;;6.13;;
52043;SDS011;38053;53.100;6.078;2023-02-04T08:57:35;31.98;;;4.90;;
52043;SDS011;38053;53.100;6.078;2023-02-04T09:00:00;28.77;;;5.68;;
52043;SDS011;38053;53.100;6.078;2023-02-04T09:02:26;28.33;;;5.13;;
52043;SDS011;38053;53.100;6.078;2023-02-04T09:04:52;36.30;;;7.07;;
52043;SDS011;38053;53.100;6.078;2023-02-04T09:07:18;28.50;;;6.28;;
52043;SDS011;38053;53.100;6.078;2023-02-04T09:09:43;26.48;;;4.40;;
52043;SDS011;38053;53.100;6.078;2023-02-04T09:12:09;29.73;;;5.47;;
52043;SDS011;38053;53.100;6.078;2023-02-04T09:14:35;29.77;;;5.43;;
52043;SDS011;38053;53.100;6.078;2023-02-04T09:17:00;35.95;;;6.30;;
52043;SDS011;38053;53.100;6.078;2023-02-04T09:19:26;26.65;;;5.93;;
52043;SDS011;38053;53.100;6.078;2023-02-04T09:21:52;15.68;;;4.85;;
52043;SDS011;38053;53.100;6.078;2023-02-04T09:24:18;19.80;;;3.72;;
52043;SDS011;38053;53.100;6.078;2023-02-04T09:26:47;18.58;;;4.78;;
52043;SDS011;38053;53.100;6.078;2023-02-04T09:29:13;18.00;;;5.10;;
52043;SDS011;38053;53.100;6.078;2023-02-04T09:31:39;25.83;;;5.63;;
52043;SDS011;38053;53.100;6.078;2023-02-04T09:34:05;21.58;;;5.00;;
52043;SDS011;38053;53.100;6.078;2023-02-04T09:36:31;20.65;;;3.88;;
52043;SDS011;38053;53.100;6.078;2023-02-04T09:39:02;18.05;;;4.07;;
52043;SDS011;38053;53.100;6.078;2023-02-04T09:41:30;21.63;;;3.72;;
52043;SDS011;38053;53.100;6.078;2023-02-04T09:43:57;17.33;;;3.80;;
52043;SDS011;38053;53.100;6.078;2023-02-04T09:46:24;21.48;;;3.45;;
52043;SDS011;38053;53.100;6.078;2023-02-04T09:48:54;28.60;;;5.40;;
52043;SDS011;38053;53.100;6.078;2023-02-04T09:51:21;21.15;;;3.55;;
52043;SDS011;38053;53.100;6.078;2023-02-04T09:53:50;26.23;;;5.13;;
52043;SDS011;38053;53.100;6.078;2023-02-04T09:56:18;30.23;;;4.57;;
52043;SDS011;38053;53.100;6.078;2023-02-04T09:58:44;22.15;;;4.80;;
52043;SDS011;38053;53.100;6.078;2023-02-04T10:01:12;13.60;;;2.90;;
52043;SDS011;38053;53.100;6.078;2023-02-04T10:03:40;15.17;;;3.13;;
52043;SDS011;38053;53.100;6.078;2023-02-04T10:06:18;31.27;;;4.97;;
52043;SDS011;38053;53.100;6.078;2023-02-04T10:08:46;19.38;;;4.43;;
52043;SDS011;38053;53.100;6.078;2023-02-04T10:11:12;21.33;;;3.95;;
52043;SDS011;38053;53.100;6.078;2023-02-04T10:13:46;23.23;;;3.42;;
52043;SDS011;38053;53.100;6.078;2023-02-04T10:16:24;16.20;;;3.28;;
52043;SDS011;38053;53.100;6.078;2023-02-04T10:18:57;18.77;;;3.30;;
52043;SDS011;38053;53.100;6.078;2023-02-04T10:21:31;18.67;;;3.88;;
52043;SDS011;38053;53.100;6.078;2023-02-04T10:24:05;17.27;;;3.97;;
52043;SDS011;38053;53.100;6.078;2023-02-04T10:26:45;16.02;;;3.38;;
52043;SDS011;38053;53.100;6.078;2023-02-04T10:29:13;17.23;;;4.00;;
52043;SDS011;38053;53.100;6.078;2023-02-04T10:31:41;15.00;;;2.80;;
52043;SDS011;38053;53.100;6.078;2023-02-04T10:34:10;21.92;;;3.10;;
52043;SDS011;38053;53.100;6.078;2023-02-04T10:36:56;17.52;;;3.28;;
52043;SDS011;38053;53.100;6.078;2023-02-04T10:39:23;17.45;;;3.97;;
52043;SDS011;38053;53.100;6.078;2023-02-04T10:41:53;14.40;;;3.57;;
52043;SDS011;38053;53.100;6.078;2023-02-04T10:44:31;17.77;;;4.38;;
52043;SDS011;38053;53.100;6.078;2023-02-04T10:47:00;25.58;;;5.00;;
52043;SDS011;38053;53.100;6.078;2023-02-04T10:49:27;15.00;;;4.18;;
52043;SDS011;38053;53.100;6.078;2023-02-04T10:51:53;17.60;;;3.85;;
52043;SDS011;38053;53.100;6.078;2023-02-04T10:54:20;14.18;;;3.35;;
52043;SDS011;38053;53.100;6.078;2023-02-04T10:56:54;18.23;;;3.28;;
52043;SDS011;38053;53.100;6.078;2023-02-04T10:59:22;22.02;;;3.30;;
52043;SDS011;38053;53.100;6.078;2023-02-04T11:01:52;18.40;;;2.65;;
52043;SDS011;38053;53.100;6.078;2023-02-04T11:04:19;15.23;;;3.15;;
52043;SDS011;38053;53.100;6.078;2023-02-04T11:06:45;21.05;;;5.00;;
52043;SDS011;38053;53.100;6.078;2023-02-04T11:09:12;21.92;;;3.65;;
52043;SDS011;38053;53.100;6.078;2023-02-04T11:11:42;17.05;;;2.78;;
52043;SDS011;38053;53.100;6.078;2023-02-04T11:14:32;13.18;;;2.58;;
52043;SDS011;38053;53.100;6.078;2023-02-04T11:16:57;15.48;;;3.85;;
52043;SDS011;38053;53.100;6.078;2023-02-04T11:19:33;10.65;;;2.63;;
52043;SDS011;38053;53.100;6.078;2023-02-04T11:22:04;20.33;;;2.88;;
52043;SDS011;38053;53.100;6.078;2023-02-04T11:24:33;16.77;;;3.28;;
52043;SDS011;38053;53.100;6.078;2023-02-04T11:27:17;19.67;;;3.30;;
52043;SDS011;38053;53.100;6.078;2023-02-04T11:29:44;22.13;;;4.97;;
52043;SDS011;38053;53.100;6.078;2023-02-04T11:35:05;15.23;;;3.08;;
52043;SDS011;38053;53.100;6.078;2023-02-04T11:37:38;13.93;;;2.67;;
52043;SDS011;38053;53.100;6.078;2023-02-04T11:45:27;18.40;;;3.42;;
52043;SDS011;38053;53.100;6.078;2023-02-04T11:47:58;17.05;;;4.05;;
52043;SDS011;38053;53.100;6.078;2023-02-04T11:52:59;21.73;;;3.50;;
52043;SDS011;38053;53.100;6.078;2023-02-04T11:55:26;15.93;;;4.78;;
52043;SDS011;38053;53.100;6.078;2023-02-04T11:57:54;18.63;;;3.65;;
52043;SDS011;38053;53.100;6.078;2023-02-04T12:00:31;23.67;;;4.38;;
52043;SDS011;38053;53.100;6.078;2023-02-04T12:03:02;14.88;;;4.15;;
52043;SDS011;38053;53.100;6.078;2023-02-04T12:05:45;19.33;;;4.38;;
52043;SDS011;38053;53.100;6.078;2023-02-04T12:11:00;16.83;;;3.03;;
52043;SDS011;38053;53.100;6.078;2023-02-04T12:13:26;15.32;;;3.22;;
52043;SDS011;38053;53.100;6.078;2023-02-04T12:15:53;16.73;;;3.38;;
52043;SDS011;38053;53.100;6.078;2023-02-04T12:18:23;20.67;;;4.07;;
52043;SDS011;38053;53.100;6.078;2023-02-04T12:20:52;17.15;;;2.85;;
52043;SDS011;38053;53.100;6.078;2023-02-04T12:23:18;13.25;;;2.60;;
52043;SDS011;38053;53.100;6.078;2023-02-04T12:25:44;14.93;;;3.38;;
52043;SDS011;38053;53.100;6.078;2023-02-04T12:28:10;15.13;;;3.03;;
52043;SDS011;38053;53.100;6.078;2023-02-04T12:30:35;16.77;;;3.00;;
52043;SDS011;38053;53.100;6.078;2023-02-04T12:33:01;10.15;;;2.85;;
52043;SDS011;38053;53.100;6.078;2023-02-04T12:35:27;16.30;;;2.78;;
52043;SDS011;38053;53.100;6.078;2023-02-04T12:37:53;17.23;;;3.50;;
52043;SDS011;38053;53.100;6.078;2023-02-04T12:40:19;9.82;;;3.03;;
52043;SDS011;38053;53.100;6.078;2023-02-04T12:42:45;18.98;;;3.55;;
52043;SDS011;38053;53.100;6.078;2023-02-04T12:45:12;10.80;;;2.25;;
52043;SDS011;38053;53.100;6.078;2023-02-04T12:47:39;11.68;;;2.85;;
52043;SDS011;38053;53.100;6.078;2023-02-04T12:50:05;10.02;;;2.70;;
52043;SDS011;38053;53.100;6.078;2023-02-04T12:52:32;9.93;;;2.42;;
52043;SDS011;38053;53.100;6.078;2023-02-04T12:54:58;18.48;;;4.25;;
52043;SDS011;38053;53.100;6.078;2023-02-04T12:59:58;21.63;;;3.70;;
52043;SDS011;38053;53.100;6.078;2023-02-04T13:02:26;12.65;;;2.70;;
52043;SDS011;38053;53.100;6.078;2023-02-04T13:04:52;15.32;;;3.40;;
52043;SDS011;38053;53.100;6.078;2023-02-04T13:07:18;14.32;;;2.55;;
52043;SDS011;38053;53.100;6.078;2023-02-04T13:09:45;22.60;;;3.97;;
52043;SDS011;38053;53.100;6.078;2023-02-04T13:12:10;19.70;;;4.90;;
52043;SDS011;38053;53.100;6.078;2023-02-04T13:14:38;14.68;;;3.50;;
52043;SDS011;38053;53.100;6.078;2023-02-04T13:17:06;14.27;;;2.50;;
52043;SDS011;38053;53.100;6.078;2023-02-04T13:19:33;15.90;;;2.80;;
52043;SDS011;38053;53.100;6.078;2023-02-04T13:21:59;21.13;;;3.20;;
52043;SDS011;38053;53.100;6.078;2023-02-04T13:24:25;16.67;;;2.70;;
52043;SDS011;38053;53.100;6.078;2023-02-04T13:26:51;18.35;;;3.05;;
52043;SDS011;38053;53.100;6.078;2023-02-04T13:29:17;15.35;;;3.55;;
52043;SDS011;38053;53.100;6.078;2023-02-04T13:31:42;20.08;;;3.72;;
52043;SDS011;38053;53.100;6.078;2023-02-04T13:34:08;12.85;;;4.15;;
52043;SDS011;38053;53.100;6.078;2023-02-04T13:36:34;14.05;;;3.80;;
52043;SDS011;38053;53.100;6.078;2023-02-04T13:39:00;15.13;;;3.20;;
52043;SDS011;38053;53.100;6.078;2023-02-04T13:41:26;16.65;;;3.03;;
52043;SDS011;38053;53.100;6.078;2023-02-04T13:43:52;12.30;;;2.30;;
52043;SDS011;38053;53.100;6.078;2023-02-04T13:46:18;18.55;;;3.05;;
52043;SDS011;38053;53.100;6.078;2023-02-04T13:48:44;14.05;;;3.78;;
52043;SDS011;38053;53.100;6.078;2023-02-04T13:51:10;14.98;;;3.08;;
52043;SDS011;38053;53.100;6.078;2023-02-04T13:53:36;13.88;;;3.80;;
52043;SDS011;38053;53.100;6.078;2023-02-04T13:56:01;20.40;;;4.63;;
52043;SDS011;38053;53.100;6.078;2023-02-04T13:58:27;18.52;;;3.50;;
52043;SDS011;38053;53.100;6.078;2023-02-04T14:00:53;16.40;;;3.35;;
52043;SDS011;38053;53.100;6.078;2023-02-04T14:03:27;17.15;;;2.60;;
52043;SDS011;38053;53.100;6.078;2023-02-04T14:05:54;20.35;;;4.13;;
52043;SDS011;38053;53.100;6.078;2023-02-04T14:08:20;14.85;;;3.00;;
52043;SDS011;38053;53.100;6.078;2023-02-04T14:10:46;11.77;;;2.65;;
52043;SDS011;38053;53.100;6.078;2023-02-04T14:13:12;15.43;;;2.85;;
52043;SDS011;38053;53.100;6.078;2023-02-04T14:15:38;16.75;;;3.88;;
52043;SDS011;38053;53.100;6.078;2023-02-04T14:18:06;15.25;;;2.92;;
52043;SDS011;38053;53.100;6.078;2023-02-04T14:20:32;15.35;;;2.97;;
52043;SDS011;38053;53.100;6.078;2023-02-04T14:22:59;11.52;;;2.38;;
52043;SDS011;38053;53.100;6.078;2023-02-04T14:25:24;14.60;;;3.28;;
52043;SDS011;38053;53.100;6.078;2023-02-04T14:27:50;15.82;;;2.60;;
52043;SDS011;38053;53.100;6.078;2023-02-04T14:30:20;17.48;;;2.53;;
52043;SDS011;38053;53.100;6.078;2023-02-04T14:32:48;16.58;;;3.70;;
52043;SDS011;38053;53.100;6.078;2023-02-04T14:35:16;13.57;;;2.55;;
52043;SDS011;38053;53.100;6.078;2023-02-04T14:37:42;15.93;;;3.15;;
52043;SDS011;38053;53.100;6.078;2023-02-04T14:40:08;14.75;;;2.13;;
52043;SDS011;38053;53.100;6.078;2023-02-04T14:42:35;25.70;;;5.03;;
52043;SDS011;38053;53.100;6.078;2023-02-04T14:45:03;17.75;;;2.78;;
52043;SDS011;38053;53.100;6.078;2023-02-04T14:47:33;20.65;;;3.42;;